Thompsontown, Pennsylvania
Current Conditions -  °F | °C
As of 5:53 PM on Friday 19 Dec 2014 (Local Time) from KSEG Reporting Station
Overcast Overcast  
Wind Chill: -3°   Ceiling: 3900
Heat Index:   Visibility: 10mi
Dew Point: -6°   Wind: 10mph
Humidity: 57%   Direction: 330°NNW
Pressure: 30.19"   Gusts: NA
Location:  40.56°N, 77.24°W
Report Text: KSEG 192253Z AUTO 33009KT 10SM OVC039 02/M06 A3019 RMK AO2 SLP226 T00171061
Loading
Personal Weather Stations






























Interactive Weather Map New forecast layout! Learn more

10-Day Weather Forecast

Advertisements
Track Severe Weather on mobile